createdAt,value
2023-03-30T00:00:28.849Z,9.96
2023-03-30T00:02:58.799Z,10.00
2023-03-30T00:05:28.262Z,10.01
2023-03-30T00:07:59.217Z,10.17
2023-03-30T00:10:29.198Z,10.46
2023-03-30T00:12:58.657Z,10.71
2023-03-30T00:15:28.174Z,10.85
2023-03-30T00:17:57.640Z,11.07
2023-03-30T00:20:27.173Z,11.27
2023-03-30T00:22:56.648Z,11.42
2023-03-30T00:25:27.721Z,11.45
2023-03-30T00:27:57.115Z,11.42
2023-03-30T00:30:26.791Z,11.44
2023-03-30T00:32:56.438Z,11.75
2023-03-30T00:35:26.499Z,11.90
2023-03-30T00:37:55.864Z,12.00
2023-03-30T00:40:27.091Z,12.01
2023-03-30T00:43:01.086Z,11.89
2023-03-30T00:45:34.598Z,12.00
2023-03-30T00:48:10.172Z,12.05
2023-03-30T00:50:46.617Z,12.07
2023-03-30T00:53:23.193Z,12.09
2023-03-30T00:55:56.154Z,12.07
2023-03-30T00:58:27.139Z,12.06
2023-03-30T01:00:58.178Z,11.99
2023-03-30T01:03:33.606Z,11.92
2023-03-30T01:06:07.427Z,11.88
2023-03-30T01:08:38.445Z,11.76
2023-03-30T01:11:09.413Z,11.66
2023-03-30T01:13:44.360Z,11.67
2023-03-30T01:16:29.773Z,11.56
2023-03-30T01:19:24.500Z,11.58
2023-03-30T01:22:50.093Z,11.54
2023-03-30T01:25:56.367Z,11.59
2023-03-30T01:28:46.832Z,11.63
2023-03-30T01:32:02.449Z,11.68
2023-03-30T01:34:51.668Z,11.68
2023-03-30T01:38:09.440Z,11.66
2023-03-30T01:40:44.466Z,11.64
2023-03-30T01:43:19.637Z,11.74
2023-03-30T01:45:57.001Z,11.75
2023-03-30T01:48:35.766Z,11.72
2023-03-30T01:51:11.566Z,11.76
2023-03-30T01:53:51.404Z,11.73
2023-03-30T01:56:29.233Z,11.89
2023-03-30T01:59:06.911Z,11.85
2023-03-30T02:01:41.528Z,11.95
2023-03-30T02:04:13.237Z,12.07
2023-03-30T02:06:51.211Z,12.23
2023-03-30T02:09:25.691Z,12.30
2023-03-30T02:11:57.988Z,12.35
2023-03-30T02:14:33.603Z,12.25
2023-03-30T02:17:09.284Z,12.26
2023-03-30T02:19:38.831Z,12.22
2023-03-30T02:22:08.688Z,12.26
2023-03-30T02:24:38.454Z,12.18
2023-03-30T02:27:09.195Z,12.22
2023-03-30T02:29:44.078Z,12.29
2023-03-30T02:32:20.408Z,12.32
2023-03-30T02:35:19.855Z,12.37
2023-03-30T02:38:25.773Z,12.47
2023-03-30T02:41:09.974Z,12.52
2023-03-30T02:43:57.210Z,12.40
2023-03-30T02:47:01.611Z,12.36
2023-03-30T02:49:58.995Z,12.36
2023-03-30T02:52:47.957Z,12.35
2023-03-30T02:55:29.139Z,12.39
2023-03-30T02:58:18.779Z,12.33
2023-03-30T03:01:17.036Z,12.33
2023-03-30T03:04:10.063Z,12.20
2023-03-30T03:06:48.507Z,12.03
2023-03-30T03:09:19.011Z,11.93
2023-03-30T03:11:48.512Z,11.90
2023-03-30T03:14:18.614Z,11.80
2023-03-30T03:16:50.446Z,11.72
2023-03-30T03:19:21.460Z,11.66
2023-03-30T03:21:52.745Z,11.70
2023-03-30T03:24:23.210Z,11.72
2023-03-30T03:27:11.700Z,11.80
2023-03-30T03:29:57.657Z,11.84
2023-03-30T03:32:29.021Z,11.76
2023-03-30T03:34:58.475Z,11.62
2023-03-30T03:37:28.320Z,11.39
2023-03-30T03:39:57.834Z,11.29
2023-03-30T03:42:27.853Z,11.16
2023-03-30T03:45:12.577Z,11.03
2023-03-30T03:47:55.679Z,10.89
2023-03-30T03:50:39.969Z,10.77
2023-03-30T03:53:09.820Z,10.70
2023-03-30T03:55:39.943Z,10.69
2023-03-30T03:58:09.525Z,10.62
2023-03-30T04:00:39.143Z,10.58
2023-03-30T04:03:10.255Z,10.50
2023-03-30T04:05:41.861Z,10.49
2023-03-30T04:08:11.968Z,10.46
2023-03-30T04:10:43.103Z,10.49
2023-03-30T04:13:27.793Z,10.43
2023-03-30T04:16:11.610Z,10.35
2023-03-30T04:19:05.660Z,10.29
2023-03-30T04:21:51.044Z,10.21
2023-03-30T04:24:53.866Z,10.24
2023-03-30T04:27:42.832Z,10.20
2023-03-30T04:30:23.428Z,10.26
2023-03-30T04:33:24.907Z,10.32
2023-03-30T04:36:03.553Z,10.32
2023-03-30T04:38:59.763Z,10.37
2023-03-30T04:41:54.127Z,10.42
2023-03-30T04:44:31.070Z,10.34
2023-03-30T04:47:28.854Z,10.32
2023-03-30T04:50:27.595Z,10.28
2023-03-30T04:53:19.430Z,10.31
2023-03-30T04:56:12.459Z,10.20
2023-03-30T04:58:49.280Z,10.14
2023-03-30T05:01:37.054Z,10.11
2023-03-30T05:04:31.640Z,10.14
2023-03-30T05:07:13.286Z,10.13
2023-03-30T05:09:53.627Z,10.08
2023-03-30T05:12:41.801Z,10.06
2023-03-30T05:15:34.183Z,10.05
2023-03-30T05:18:39.831Z,10.03
2023-03-30T05:21:20.583Z,10.03
2023-03-30T05:24:14.534Z,10.01
2023-03-30T05:27:02.358Z,9.99
2023-03-30T05:29:45.997Z,9.98
2023-03-30T05:32:41.463Z,9.95
2023-03-30T05:35:29.656Z,9.98
2023-03-30T05:38:08.425Z,9.98
2023-03-30T05:40:52.973Z,9.99
2023-03-30T05:43:49.495Z,10.00
2023-03-30T05:46:54.176Z,10.02
2023-03-30T05:49:42.163Z,10.03
2023-03-30T05:52:27.588Z,10.04
2023-03-30T05:55:24.884Z,10.06
2023-03-30T05:58:21.075Z,10.07
2023-03-30T06:01:11.968Z,10.06
2023-03-30T06:03:43.246Z,10.08
2023-03-30T06:06:13.839Z,10.10
2023-03-30T06:08:44.107Z,10.13
2023-03-30T06:11:19.531Z,10.15
2023-03-30T06:14:00.942Z,10.19
2023-03-30T06:16:32.740Z,10.23
2023-03-30T06:19:03.100Z,10.27
2023-03-30T06:21:32.553Z,10.27
2023-03-30T06:24:20.734Z,10.30
2023-03-30T06:26:51.526Z,10.32
2023-03-30T06:29:21.018Z,10.34
2023-03-30T06:31:52.314Z,10.36
2023-03-30T06:34:40.464Z,10.40
2023-03-30T06:37:10.137Z,10.42
2023-03-30T06:39:40.022Z,10.45
2023-03-30T06:42:09.562Z,10.47
2023-03-30T06:45:10.270Z,10.48
2023-03-30T06:47:42.300Z,10.49
2023-03-30T06:50:13.422Z,10.50
2023-03-30T06:53:01.688Z,10.54
2023-03-30T06:55:38.314Z,10.51
2023-03-30T06:58:08.002Z,10.54
2023-03-30T07:00:38.384Z,10.56
2023-03-30T07:03:29.961Z,10.58
2023-03-30T07:06:12.620Z,10.64
2023-03-30T07:08:42.536Z,10.70
2023-03-30T07:11:15.133Z,10.77
2023-03-30T07:13:44.558Z,10.84
2023-03-30T07:16:14.081Z,10.91
2023-03-30T07:18:45.532Z,10.96
2023-03-30T07:21:15.592Z,11.02
2023-03-30T07:23:45.232Z,11.02
2023-03-30T07:26:26.967Z,11.04
2023-03-30T07:29:01.740Z,11.04
2023-03-30T07:31:31.937Z,11.02
2023-03-30T07:34:04.226Z,11.02
2023-03-30T07:36:38.560Z,11.04
2023-03-30T07:39:09.017Z,10.99
2023-03-30T07:41:41.211Z,10.98
2023-03-30T07:44:10.682Z,10.99
2023-03-30T07:46:41.170Z,11.00
2023-03-30T07:49:16.993Z,11.04
2023-03-30T07:51:47.182Z,11.07
2023-03-30T07:54:23.316Z,11.07
2023-03-30T07:57:15.811Z,11.06
2023-03-30T07:59:45.794Z,11.07
2023-03-30T08:02:27.190Z,11.05
2023-03-30T08:05:00.173Z,11.07
2023-03-30T08:07:58.886Z,11.13
2023-03-30T08:10:33.733Z,11.19
2023-03-30T08:13:03.473Z,11.28
2023-03-30T08:15:32.894Z,11.34
2023-03-30T08:18:04.339Z,11.40
2023-03-30T08:20:36.254Z,11.49
2023-03-30T08:23:06.110Z,11.54
2023-03-30T08:25:36.250Z,11.58
2023-03-30T08:28:06.795Z,11.63
2023-03-30T08:30:36.488Z,11.67
2023-03-30T08:33:06.100Z,11.67
2023-03-30T08:35:36.974Z,11.68
2023-03-30T08:38:06.431Z,11.70
2023-03-30T08:40:40.150Z,11.70
2023-03-30T08:43:34.700Z,11.73
2023-03-30T08:46:04.838Z,11.72
2023-03-30T08:48:37.914Z,11.76
2023-03-30T08:51:23.357Z,11.78
2023-03-30T08:53:59.268Z,11.83
2023-03-30T08:56:31.998Z,11.96
2023-03-30T08:59:18.564Z,12.10
2023-03-30T09:01:55.416Z,12.20
2023-03-30T09:04:40.052Z,12.33
2023-03-30T09:07:18.668Z,12.46
2023-03-30T09:09:52.036Z,12.59
2023-03-30T09:12:34.194Z,12.75
2023-03-30T09:15:12.921Z,12.91
2023-03-30T09:17:48.351Z,13.07
2023-03-30T09:20:24.687Z,13.35
2023-03-30T09:23:00.188Z,13.57
2023-03-30T09:25:40.685Z,13.67
2023-03-30T09:28:20.571Z,13.77
2023-03-30T09:30:55.713Z,13.92
2023-03-30T09:33:38.002Z,14.06
2023-03-30T09:36:17.265Z,14.24
2023-03-30T09:38:48.687Z,14.46
2023-03-30T09:41:36.605Z,14.56
2023-03-30T09:44:22.250Z,14.73
2023-03-30T09:46:59.545Z,14.90
2023-03-30T09:49:39.242Z,14.94
2023-03-30T09:52:20.763Z,15.00
2023-03-30T09:54:51.498Z,15.07
2023-03-30T09:57:30.079Z,15.23
2023-03-30T10:00:02.495Z,15.37
2023-03-30T10:02:41.462Z,15.37
2023-03-30T10:05:19.612Z,15.53
2023-03-30T10:07:56.853Z,15.61
2023-03-30T10:10:36.115Z,15.64
2023-03-30T10:13:13.628Z,15.65
2023-03-30T10:15:48.463Z,15.63
2023-03-30T10:18:29.359Z,15.46
2023-03-30T10:21:06.296Z,15.38
2023-03-30T10:23:41.964Z,15.16
2023-03-30T10:26:19.289Z,15.07
2023-03-30T10:28:57.714Z,15.00
2023-03-30T10:31:28.410Z,14.93
2023-03-30T10:34:01.194Z,14.86
2023-03-30T10:36:34.458Z,14.89
2023-03-30T10:39:13.228Z,14.87
2023-03-30T10:41:44.584Z,14.79
2023-03-30T10:44:26.154Z,14.71
2023-03-30T10:47:18.617Z,14.71
2023-03-30T10:50:05.888Z,14.54
2023-03-30T10:52:59.027Z,14.43
2023-03-30T10:55:41.685Z,14.34
2023-03-30T10:58:31.739Z,14.41
2023-03-30T11:01:13.339Z,14.23
2023-03-30T11:03:52.707Z,14.04
2023-03-30T11:06:27.995Z,13.95
2023-03-30T11:09:02.050Z,13.82
2023-03-30T11:11:40.652Z,13.75
2023-03-30T11:14:19.171Z,13.40
2023-03-30T11:16:54.406Z,13.23
2023-03-30T11:19:30.038Z,13.04
2023-03-30T11:22:08.690Z,12.77
2023-03-30T11:24:38.136Z,12.57
2023-03-30T11:27:18.658Z,12.37
2023-03-30T11:29:56.789Z,12.35
2023-03-30T11:32:34.245Z,12.22
2023-03-30T11:35:14.102Z,12.05
2023-03-30T11:37:52.179Z,12.07
2023-03-30T11:40:26.971Z,11.91
2023-03-30T11:42:57.015Z,11.77
2023-03-30T11:45:54.103Z,11.44
2023-03-30T11:49:05.857Z,11.35
2023-03-30T11:52:00.914Z,11.15
2023-03-30T11:55:19.457Z,11.00
2023-03-30T11:58:06.590Z,10.81
2023-03-30T12:00:51.653Z,10.73
2023-03-30T12:03:42.229Z,10.76
2023-03-30T12:06:29.654Z,10.68
2023-03-30T12:09:26.581Z,10.62
2023-03-30T12:12:15.797Z,10.46
2023-03-30T12:15:03.720Z,10.43
2023-03-30T12:17:50.955Z,10.39
2023-03-30T12:20:40.399Z,10.36
2023-03-30T12:23:35.544Z,10.41
2023-03-30T12:26:26.721Z,10.31
2023-03-30T12:29:52.454Z,10.28
2023-03-30T12:32:21.252Z,10.34
2023-03-30T12:34:52.972Z,10.37
2023-03-30T12:37:28.859Z,10.39
2023-03-30T12:40:06.847Z,10.32
2023-03-30T12:42:46.349Z,10.35
2023-03-30T12:45:32.718Z,10.30
2023-03-30T12:48:29.706Z,10.26
2023-03-30T12:51:14.974Z,10.17
2023-03-30T12:54:19.261Z,10.18
2023-03-30T12:56:59.831Z,10.17
2023-03-30T12:59:53.840Z,10.22
2023-03-30T13:03:01.856Z,10.16
2023-03-30T13:05:35.379Z,10.11
2023-03-30T13:08:10.798Z,10.13
2023-03-30T13:10:44.469Z,10.14
2023-03-30T13:13:45.706Z,10.10
2023-03-30T13:16:15.471Z,10.11
2023-03-30T13:18:56.379Z,10.09
2023-03-30T13:21:27.009Z,10.15
2023-03-30T13:24:28.480Z,10.09
2023-03-30T13:27:23.489Z,10.18
2023-03-30T13:29:57.918Z,10.18
2023-03-30T13:32:43.768Z,10.21
2023-03-30T13:35:40.674Z,10.20
2023-03-30T13:38:58.556Z,10.16
2023-03-30T13:41:52.336Z,10.17
2023-03-30T13:44:51.829Z,10.10
2023-03-30T13:47:51.057Z,10.12
2023-03-30T13:50:26.631Z,10.17
2023-03-30T13:53:00.628Z,10.18
2023-03-30T13:55:33.786Z,10.17
2023-03-30T13:58:08.289Z,10.24
2023-03-30T14:00:47.232Z,10.24
2023-03-30T14:03:40.094Z,10.25
2023-03-30T14:06:19.064Z,10.24
2023-03-30T14:08:52.305Z,10.20
2023-03-30T14:11:24.608Z,10.28
2023-03-30T14:13:56.447Z,10.30
2023-03-30T14:16:29.350Z,10.39
2023-03-30T14:19:16.662Z,10.51
2023-03-30T14:21:48.484Z,10.59
2023-03-30T14:24:27.701Z,10.59
2023-03-30T14:27:04.704Z,10.61
2023-03-30T14:29:44.788Z,10.72
2023-03-30T14:32:17.187Z,10.88
2023-03-30T14:34:48.740Z,11.03
2023-03-30T14:37:21.190Z,11.27
2023-03-30T14:39:56.499Z,11.50
2023-03-30T14:42:29.775Z,11.78
2023-03-30T14:45:01.531Z,12.14
2023-03-30T14:47:31.354Z,12.18
2023-03-30T14:50:07.839Z,12.11
2023-03-30T14:52:42.650Z,12.07
2023-03-30T14:55:18.842Z,11.99
2023-03-30T14:57:49.350Z,11.99
2023-03-30T15:00:24.797Z,11.91
2023-03-30T15:03:01.045Z,11.91
2023-03-30T15:05:37.512Z,11.85
2023-03-30T15:08:26.687Z,11.83
2023-03-30T15:10:58.558Z,11.74
2023-03-30T15:13:37.266Z,11.67
2023-03-30T15:16:09.199Z,11.66
2023-03-30T15:18:39.061Z,11.69
2023-03-30T15:21:10.468Z,11.62
2023-03-30T15:23:44.780Z,11.79
2023-03-30T15:26:14.685Z,11.83
2023-03-30T15:28:50.500Z,11.80
2023-03-30T15:31:21.881Z,11.94
2023-03-30T15:33:55.829Z,12.33
2023-03-30T15:36:29.158Z,12.70
2023-03-30T15:39:00.536Z,12.81
2023-03-30T15:41:48.176Z,12.50
2023-03-30T15:44:20.960Z,12.35
2023-03-30T15:46:57.038Z,12.18
2023-03-30T15:49:37.396Z,12.37
2023-03-30T15:52:17.907Z,12.74
2023-03-30T15:54:53.776Z,12.90
2023-03-30T15:57:29.501Z,12.95
2023-03-30T16:00:03.151Z,13.11
2023-03-30T16:02:48.987Z,13.18
2023-03-30T16:05:22.980Z,13.27
2023-03-30T16:07:52.409Z,13.29
2023-03-30T16:10:26.559Z,13.20
2023-03-30T16:12:58.854Z,13.17
2023-03-30T16:15:32.835Z,13.26
2023-03-30T16:18:03.720Z,13.21
2023-03-30T16:20:34.853Z,13.22
2023-03-30T16:23:04.996Z,13.08
2023-03-30T16:25:44.646Z,12.94
2023-03-30T16:28:18.600Z,12.82
2023-03-30T16:30:52.311Z,12.61
2023-03-30T16:33:24.382Z,12.35
2023-03-30T16:35:53.939Z,12.23
2023-03-30T16:38:23.438Z,12.16
2023-03-30T16:40:56.412Z,12.07
2023-03-30T16:43:27.218Z,11.94
2023-03-30T16:45:57.116Z,11.80
2023-03-30T16:48:28.114Z,11.85
2023-03-30T16:50:57.717Z,11.82
2023-03-30T16:53:27.257Z,11.72
2023-03-30T16:55:56.827Z,11.71
2023-03-30T16:58:26.330Z,11.73
2023-03-30T17:01:02.999Z,11.69
2023-03-30T17:03:34.122Z,11.58
2023-03-30T17:06:03.558Z,11.61
2023-03-30T17:08:33.596Z,11.65
2023-03-30T17:11:05.054Z,11.67
2023-03-30T17:13:35.128Z,11.70
2023-03-30T17:16:04.754Z,11.61
2023-03-30T17:18:35.723Z,11.67
2023-03-30T17:21:06.628Z,11.69
2023-03-30T17:23:36.548Z,11.68
2023-03-30T17:26:07.712Z,11.72
2023-03-30T17:28:38.355Z,11.64
2023-03-30T17:31:16.333Z,11.65
2023-03-30T17:33:48.987Z,11.56
2023-03-30T17:36:21.163Z,11.51
2023-03-30T17:38:52.333Z,11.43
2023-03-30T17:41:22.306Z,11.38
2023-03-30T17:43:51.870Z,11.32
2023-03-30T17:46:21.823Z,11.27
2023-03-30T17:48:52.701Z,11.33
2023-03-30T17:51:22.118Z,11.28
2023-03-30T17:53:51.538Z,11.23
2023-03-30T17:56:20.929Z,11.15
2023-03-30T17:58:53.090Z,11.14
2023-03-30T18:01:22.549Z,11.18
2023-03-30T18:03:53.476Z,11.17
2023-03-30T18:06:22.988Z,11.07
2023-03-30T18:08:52.436Z,11.10
2023-03-30T18:11:22.628Z,11.09
2023-03-30T18:13:53.784Z,11.02
2023-03-30T18:16:24.826Z,11.01
2023-03-30T18:18:57.805Z,11.00
2023-03-30T18:21:28.205Z,11.01
2023-03-30T18:23:57.971Z,10.93
2023-03-30T18:26:27.537Z,10.81
2023-03-30T18:28:56.909Z,10.78
2023-03-30T18:31:26.304Z,10.73
2023-03-30T18:33:57.156Z,10.74
2023-03-30T18:36:26.542Z,10.70
2023-03-30T18:38:56.025Z,10.63
2023-03-30T18:41:25.886Z,10.68
2023-03-30T18:43:55.328Z,10.64
2023-03-30T18:46:24.733Z,10.56
2023-03-30T18:48:54.245Z,10.60
2023-03-30T18:51:25.048Z,10.51
2023-03-30T18:53:54.574Z,10.44
2023-03-30T18:56:24.335Z,10.43
2023-03-30T18:58:53.734Z,10.32
2023-03-30T19:01:23.184Z,10.37
2023-03-30T19:03:52.584Z,10.45
2023-03-30T19:06:24.577Z,10.40
2023-03-30T19:08:53.989Z,10.44
2023-03-30T19:11:27.297Z,10.36
2023-03-30T19:14:00.243Z,10.37
2023-03-30T19:16:29.605Z,10.35
2023-03-30T19:18:58.863Z,10.33
2023-03-30T19:21:29.676Z,10.18
2023-03-30T19:23:59.071Z,10.17
2023-03-30T19:26:28.504Z,10.28
2023-03-30T19:28:57.928Z,10.29
2023-03-30T19:31:27.424Z,10.26
2023-03-30T19:33:56.946Z,10.23
2023-03-30T19:36:26.378Z,10.40
2023-03-30T19:38:57.154Z,10.52
2023-03-30T19:41:27.115Z,10.48
2023-03-30T19:43:56.560Z,10.30
2023-03-30T19:46:26.045Z,10.03
2023-03-30T19:48:55.474Z,9.96
2023-03-30T19:51:24.912Z,9.72
2023-03-30T19:53:56.940Z,9.50
2023-03-30T19:56:26.652Z,9.45
2023-03-30T19:58:56.096Z,9.35
2023-03-30T20:01:25.844Z,9.33
2023-03-30T20:03:55.367Z,9.34
2023-03-30T20:06:24.915Z,9.33
2023-03-30T20:08:56.494Z,9.23
2023-03-30T20:11:26.077Z,9.22
2023-03-30T20:13:55.526Z,9.11
2023-03-30T20:16:25.937Z,9.03
2023-03-30T20:18:57.679Z,9.02
2023-03-30T20:21:27.723Z,8.89
2023-03-30T20:23:59.912Z,8.81
2023-03-30T20:26:30.722Z,8.73
2023-03-30T20:29:00.822Z,8.72
2023-03-30T20:31:31.320Z,8.76
2023-03-30T20:34:00.850Z,8.71
2023-03-30T20:36:30.346Z,8.70
2023-03-30T20:39:01.233Z,8.71
2023-03-30T20:41:38.147Z,8.68
2023-03-30T20:44:12.244Z,8.66
2023-03-30T20:46:43.418Z,8.63
2023-03-30T20:49:14.013Z,8.61
2023-03-30T20:51:45.126Z,8.58
2023-03-30T20:54:15.981Z,8.56
2023-03-30T20:56:45.769Z,8.56
2023-03-30T20:59:15.368Z,8.56
2023-03-30T21:01:47.165Z,8.56
2023-03-30T21:04:17.158Z,8.52
2023-03-30T21:06:46.903Z,8.47
2023-03-30T21:09:18.611Z,8.40
2023-03-30T21:11:48.412Z,8.37
2023-03-30T21:14:17.857Z,8.36
2023-03-30T21:16:47.258Z,8.33
2023-03-30T21:19:16.776Z,8.31
2023-03-30T21:21:46.387Z,8.30
2023-03-30T21:24:18.494Z,8.27
2023-03-30T21:26:47.938Z,8.31
2023-03-30T21:29:17.560Z,8.33
2023-03-30T21:31:47.072Z,8.32
2023-03-30T21:34:18.618Z,8.27
2023-03-30T21:36:48.201Z,8.20
2023-03-30T21:39:19.229Z,8.16
2023-03-30T21:41:48.638Z,8.09
2023-03-30T21:44:18.089Z,8.04
2023-03-30T21:46:47.595Z,7.99
2023-03-30T21:49:17.160Z,7.93
2023-03-30T21:51:46.902Z,7.90
2023-03-30T21:54:19.181Z,7.81
2023-03-30T21:56:48.671Z,7.72
2023-03-30T21:59:18.824Z,7.65
2023-03-30T22:01:48.266Z,7.54
2023-03-30T22:04:17.686Z,7.48
2023-03-30T22:06:47.663Z,7.44
2023-03-30T22:09:18.418Z,7.34
2023-03-30T22:11:47.826Z,7.25
2023-03-30T22:14:17.242Z,7.15
2023-03-30T22:16:46.818Z,7.05
2023-03-30T22:19:18.475Z,6.97
2023-03-30T22:21:48.049Z,6.88
2023-03-30T22:24:20.144Z,6.78
2023-03-30T22:26:49.890Z,6.76
2023-03-30T22:29:20.824Z,6.69
2023-03-30T22:31:51.575Z,6.60
2023-03-30T22:34:21.051Z,6.56
2023-03-30T22:36:50.537Z,6.54
2023-03-30T22:39:21.309Z,6.46
2023-03-30T22:41:50.752Z,6.43
2023-03-30T22:44:21.338Z,6.38
2023-03-30T22:46:50.809Z,6.38
2023-03-30T22:49:20.242Z,6.43
2023-03-30T22:51:53.047Z,6.40
2023-03-30T22:54:24.498Z,6.43
2023-03-30T22:56:53.947Z,6.45
2023-03-30T22:59:23.398Z,6.42
2023-03-30T23:01:53.104Z,6.42
2023-03-30T23:04:24.675Z,6.35
2023-03-30T23:06:54.798Z,6.26
2023-03-30T23:09:28.588Z,6.20
2023-03-30T23:11:57.993Z,6.13
2023-03-30T23:14:27.682Z,6.10
2023-03-30T23:16:57.806Z,6.22
2023-03-30T23:19:29.246Z,6.37
2023-03-30T23:21:58.804Z,6.41
2023-03-30T23:24:29.616Z,6.48
2023-03-30T23:26:59.016Z,6.49
2023-03-30T23:29:28.689Z,6.47
2023-03-30T23:31:58.271Z,6.43
2023-03-30T23:34:27.668Z,6.35
2023-03-30T23:36:59.569Z,6.30
2023-03-30T23:39:31.603Z,6.27
2023-03-30T23:42:01.311Z,6.25
2023-03-30T23:44:30.962Z,6.24
2023-03-30T23:47:00.686Z,6.21
2023-03-30T23:49:30.129Z,6.16
2023-03-30T23:51:59.551Z,6.15
2023-03-30T23:54:31.528Z,6.11
2023-03-30T23:57:01.835Z,6.15
2023-03-30T23:59:31.422Z,6.15
